Terminal Aerodrome Forecast
Issued by NWS Cleveland, OH

Home | Current Version | Previous Version | Text Only | Print | Product List | Glossary On
Versions: 1 2 3 4 5 6 7 8 9 10 11 12 13 14 15 16 17 18 19 20 21 22 23 24 25
000
FTUS41 KCLE 290912 AAA
TAFCLE
TAF AMD
KCLE 290912Z 2909/3012 VRB03KT P6SM FEW120 BKN250
     FM291400 24005KT P6SM SCT120 OVC250
     FM291700 28006KT P6SM SCT050 BKN120
     FM292200 20008KT P6SM BKN050 OVC100
     FM300300 15005KT P6SM VCTS BKN040CB OVC100=

USA.gov is the U.S. government's official web portal to all federal, state and local government web resources and services.